sensor_id;sensor_type;location;lat;lon;timestamp;P1;durP1;ratioP1;P2;durP2;ratioP2
21299;SDS011;10809;49.476;11.016;2022-09-09T00:00:47;1.23;;;0.60;;
21299;SDS011;10809;49.476;11.016;2022-09-09T00:03:27;0.65;;;0.57;;
21299;SDS011;10809;49.476;11.016;2022-09-09T00:06:11;0.88;;;0.75;;
21299;SDS011;10809;49.476;11.016;2022-09-09T00:08:59;0.82;;;0.63;;
21299;SDS011;10809;49.476;11.016;2022-09-09T00:11:41;1.02;;;0.70;;
21299;SDS011;10809;49.476;11.016;2022-09-09T00:14:23;1.90;;;0.52;;
21299;SDS011;10809;49.476;11.016;2022-09-09T00:17:07;1.05;;;0.75;;
21299;SDS011;10809;49.476;11.016;2022-09-09T00:19:46;1.77;;;0.70;;
21299;SDS011;10809;49.476;11.016;2022-09-09T00:22:46;2.65;;;1.50;;
21299;SDS011;10809;49.476;11.016;2022-09-09T00:25:26;0.75;;;0.50;;
21299;SDS011;10809;49.476;11.016;2022-09-09T00:28:08;2.58;;;1.00;;
21299;SDS011;10809;49.476;11.016;2022-09-09T00:30:47;1.27;;;0.60;;
21299;SDS011;10809;49.476;11.016;2022-09-09T00:33:22;4.95;;;0.63;;
21299;SDS011;10809;49.476;11.016;2022-09-09T00:35:55;0.60;;;0.60;;
21299;SDS011;10809;49.476;11.016;2022-09-09T00:38:35;0.57;;;0.50;;
21299;SDS011;10809;49.476;11.016;2022-09-09T00:41:14;1.40;;;0.60;;
21299;SDS011;10809;49.476;11.016;2022-09-09T00:44:00;1.83;;;0.88;;
21299;SDS011;10809;49.476;11.016;2022-09-09T00:52:26;1.30;;;0.75;;
21299;SDS011;10809;49.476;11.016;2022-09-09T00:57:51;1.40;;;0.67;;
21299;SDS011;10809;49.476;11.016;2022-09-09T01:00:30;2.88;;;0.90;;
21299;SDS011;10809;49.476;11.016;2022-09-09T01:06:11;1.60;;;0.70;;
21299;SDS011;10809;49.476;11.016;2022-09-09T01:17:17;1.25;;;0.68;;
21299;SDS011;10809;49.476;11.016;2022-09-09T01:22:58;0.90;;;0.60;;
21299;SDS011;10809;49.476;11.016;2022-09-09T01:29:07;6.57;;;1.53;;
21299;SDS011;10809;49.476;11.016;2022-09-09T01:32:03;1.23;;;0.77;;
21299;SDS011;10809;49.476;11.016;2022-09-09T01:38:07;0.97;;;0.63;;
21299;SDS011;10809;49.476;11.016;2022-09-09T01:40:38;1.33;;;1.07;;
21299;SDS011;10809;49.476;11.016;2022-09-09T01:43:09;2.63;;;0.60;;
21299;SDS011;10809;49.476;11.016;2022-09-09T01:45:41;5.37;;;0.77;;
21299;SDS011;10809;49.476;11.016;2022-09-09T01:48:14;3.10;;;0.67;;
21299;SDS011;10809;49.476;11.016;2022-09-09T01:50:48;2.40;;;0.60;;
21299;SDS011;10809;49.476;11.016;2022-09-09T01:53:19;0.50;;;0.50;;
21299;SDS011;10809;49.476;11.016;2022-09-09T02:01:35;0.63;;;0.47;;
21299;SDS011;10809;49.476;11.016;2022-09-09T02:07:21;0.97;;;0.43;;
21299;SDS011;10809;49.476;11.016;2022-09-09T02:10:32;1.37;;;0.70;;
21299;SDS011;10809;49.476;11.016;2022-09-09T02:13:19;1.93;;;0.60;;
21299;SDS011;10809;49.476;11.016;2022-09-09T02:18:43;0.52;;;0.52;;
21299;SDS011;10809;49.476;11.016;2022-09-09T02:21:20;0.47;;;0.43;;
21299;SDS011;10809;49.476;11.016;2022-09-09T02:23:52;1.33;;;0.80;;
21299;SDS011;10809;49.476;11.016;2022-09-09T02:26:23;0.77;;;0.50;;
21299;SDS011;10809;49.476;11.016;2022-09-09T02:28:59;0.50;;;0.50;;
21299;SDS011;10809;49.476;11.016;2022-09-09T02:31:32;1.40;;;0.50;;
21299;SDS011;10809;49.476;11.016;2022-09-09T02:34:09;2.75;;;0.80;;
21299;SDS011;10809;49.476;11.016;2022-09-09T02:36:42;3.07;;;0.80;;
21299;SDS011;10809;49.476;11.016;2022-09-09T02:39:16;0.85;;;0.68;;
21299;SDS011;10809;49.476;11.016;2022-09-09T02:41:46;0.70;;;0.55;;
21299;SDS011;10809;49.476;11.016;2022-09-09T02:44:18;1.43;;;0.50;;
21299;SDS011;10809;49.476;11.016;2022-09-09T02:52:26;4.83;;;0.60;;
21299;SDS011;10809;49.476;11.016;2022-09-09T02:55:14;1.17;;;0.40;;
21299;SDS011;10809;49.476;11.016;2022-09-09T02:58:08;0.93;;;0.53;;
21299;SDS011;10809;49.476;11.016;2022-09-09T03:00:48;2.73;;;0.60;;
21299;SDS011;10809;49.476;11.016;2022-09-09T03:03:19;2.10;;;0.63;;
21299;SDS011;10809;49.476;11.016;2022-09-09T03:05:53;0.57;;;0.50;;
21299;SDS011;10809;49.476;11.016;2022-09-09T03:08:24;0.70;;;0.70;;
21299;SDS011;10809;49.476;11.016;2022-09-09T03:10:54;1.17;;;0.50;;
21299;SDS011;10809;49.476;11.016;2022-09-09T03:13:25;3.33;;;1.20;;
21299;SDS011;10809;49.476;11.016;2022-09-09T03:15:56;2.47;;;0.63;;
21299;SDS011;10809;49.476;11.016;2022-09-09T03:18:27;1.70;;;0.80;;
21299;SDS011;10809;49.476;11.016;2022-09-09T03:21:00;1.27;;;0.50;;
21299;SDS011;10809;49.476;11.016;2022-09-09T03:23:31;0.60;;;0.50;;
21299;SDS011;10809;49.476;11.016;2022-09-09T03:26:05;0.97;;;0.50;;
21299;SDS011;10809;49.476;11.016;2022-09-09T03:28:43;1.40;;;0.70;;
21299;SDS011;10809;49.476;11.016;2022-09-09T03:31:15;1.67;;;0.87;;
21299;SDS011;10809;49.476;11.016;2022-09-09T03:33:47;1.63;;;0.50;;
21299;SDS011;10809;49.476;11.016;2022-09-09T03:36:20;1.23;;;0.70;;
21299;SDS011;10809;49.476;11.016;2022-09-09T03:38:50;2.10;;;0.70;;
21299;SDS011;10809;49.476;11.016;2022-09-09T03:41:21;4.43;;;0.67;;
21299;SDS011;10809;49.476;11.016;2022-09-09T03:43:54;1.20;;;0.70;;
21299;SDS011;10809;49.476;11.016;2022-09-09T03:46:28;1.90;;;0.50;;
21299;SDS011;10809;49.476;11.016;2022-09-09T03:48:58;1.17;;;0.73;;
21299;SDS011;10809;49.476;11.016;2022-09-09T03:51:29;0.77;;;0.70;;
21299;SDS011;10809;49.476;11.016;2022-09-09T03:54:00;0.83;;;0.70;;
21299;SDS011;10809;49.476;11.016;2022-09-09T03:56:32;4.83;;;1.13;;
21299;SDS011;10809;49.476;11.016;2022-09-09T03:59:03;1.47;;;0.70;;
21299;SDS011;10809;49.476;11.016;2022-09-09T04:01:34;3.10;;;0.70;;
21299;SDS011;10809;49.476;11.016;2022-09-09T04:04:06;2.30;;;0.70;;
21299;SDS011;10809;49.476;11.016;2022-09-09T04:06:37;1.07;;;0.70;;
21299;SDS011;10809;49.476;11.016;2022-09-09T04:09:08;1.30;;;1.20;;
21299;SDS011;10809;49.476;11.016;2022-09-09T04:11:39;1.77;;;0.53;;
21299;SDS011;10809;49.476;11.016;2022-09-09T04:14:09;2.07;;;0.70;;
21299;SDS011;10809;49.476;11.016;2022-09-09T04:16:40;4.60;;;0.97;;
21299;SDS011;10809;49.476;11.016;2022-09-09T04:19:14;0.40;;;0.40;;
21299;SDS011;10809;49.476;11.016;2022-09-09T04:21:46;3.33;;;0.90;;
21299;SDS011;10809;49.476;11.016;2022-09-09T04:24:20;0.60;;;0.60;;
21299;SDS011;10809;49.476;11.016;2022-09-09T04:26:52;1.07;;;0.50;;
21299;SDS011;10809;49.476;11.016;2022-09-09T04:29:24;0.67;;;0.40;;
21299;SDS011;10809;49.476;11.016;2022-09-09T04:31:55;6.67;;;0.63;;
21299;SDS011;10809;49.476;11.016;2022-09-09T04:34:25;1.27;;;1.00;;
21299;SDS011;10809;49.476;11.016;2022-09-09T04:36:58;1.07;;;0.60;;
21299;SDS011;10809;49.476;11.016;2022-09-09T04:39:29;0.70;;;0.57;;
21299;SDS011;10809;49.476;11.016;2022-09-09T04:41:59;2.27;;;0.73;;
21299;SDS011;10809;49.476;11.016;2022-09-09T04:44:30;2.73;;;0.73;;
21299;SDS011;10809;49.476;11.016;2022-09-09T04:47:00;0.73;;;0.70;;
21299;SDS011;10809;49.476;11.016;2022-09-09T04:49:31;2.27;;;0.70;;
21299;SDS011;10809;49.476;11.016;2022-09-09T04:52:04;0.70;;;0.67;;
21299;SDS011;10809;49.476;11.016;2022-09-09T04:54:37;4.10;;;1.00;;
21299;SDS011;10809;49.476;11.016;2022-09-09T04:57:10;2.53;;;0.73;;
21299;SDS011;10809;49.476;11.016;2022-09-09T04:59:40;0.83;;;0.60;;
21299;SDS011;10809;49.476;11.016;2022-09-09T05:02:11;0.60;;;0.60;;
21299;SDS011;10809;49.476;11.016;2022-09-09T05:04:42;3.27;;;0.60;;
21299;SDS011;10809;49.476;11.016;2022-09-09T05:07:12;1.27;;;0.60;;
21299;SDS011;10809;49.476;11.016;2022-09-09T05:09:45;1.23;;;0.53;;
21299;SDS011;10809;49.476;11.016;2022-09-09T05:12:15;0.73;;;0.60;;
21299;SDS011;10809;49.476;11.016;2022-09-09T05:14:54;2.07;;;0.53;;
21299;SDS011;10809;49.476;11.016;2022-09-09T05:17:24;2.87;;;0.93;;
21299;SDS011;10809;49.476;11.016;2022-09-09T05:19:54;1.57;;;0.90;;
21299;SDS011;10809;49.476;11.016;2022-09-09T05:22:25;3.03;;;1.00;;
21299;SDS011;10809;49.476;11.016;2022-09-09T05:24:57;1.87;;;1.10;;
21299;SDS011;10809;49.476;11.016;2022-09-09T05:27:28;2.10;;;0.80;;
21299;SDS011;10809;49.476;11.016;2022-09-09T05:30:03;1.73;;;1.10;;
21299;SDS011;10809;49.476;11.016;2022-09-09T05:32:35;2.27;;;0.80;;
21299;SDS011;10809;49.476;11.016;2022-09-09T05:35:07;1.13;;;0.90;;
21299;SDS011;10809;49.476;11.016;2022-09-09T05:37:38;1.20;;;0.90;;
21299;SDS011;10809;49.476;11.016;2022-09-09T05:40:08;3.07;;;0.97;;
21299;SDS011;10809;49.476;11.016;2022-09-09T05:42:40;1.77;;;0.70;;
21299;SDS011;10809;49.476;11.016;2022-09-09T05:45:11;1.80;;;0.80;;
21299;SDS011;10809;49.476;11.016;2022-09-09T05:47:42;0.80;;;0.57;;
21299;SDS011;10809;49.476;11.016;2022-09-09T05:50:17;0.80;;;0.80;;
21299;SDS011;10809;49.476;11.016;2022-09-09T05:52:47;1.20;;;0.77;;
21299;SDS011;10809;49.476;11.016;2022-09-09T05:55:20;1.53;;;0.80;;
21299;SDS011;10809;49.476;11.016;2022-09-09T05:57:50;1.97;;;1.00;;
21299;SDS011;10809;49.476;11.016;2022-09-09T06:00:21;1.10;;;0.80;;
21299;SDS011;10809;49.476;11.016;2022-09-09T06:02:52;4.10;;;0.93;;
21299;SDS011;10809;49.476;11.016;2022-09-09T06:05:24;1.17;;;0.70;;
21299;SDS011;10809;49.476;11.016;2022-09-09T06:07:57;1.60;;;0.80;;
21299;SDS011;10809;49.476;11.016;2022-09-09T06:10:28;3.17;;;0.80;;
21299;SDS011;10809;49.476;11.016;2022-09-09T06:12:58;1.03;;;0.70;;
21299;SDS011;10809;49.476;11.016;2022-09-09T06:15:29;2.17;;;1.13;;
21299;SDS011;10809;49.476;11.016;2022-09-09T06:18:00;1.07;;;0.70;;
21299;SDS011;10809;49.476;11.016;2022-09-09T06:20:31;2.20;;;0.90;;
21299;SDS011;10809;49.476;11.016;2022-09-09T06:23:03;1.43;;;0.83;;
21299;SDS011;10809;49.476;11.016;2022-09-09T06:25:34;0.93;;;0.70;;
21299;SDS011;10809;49.476;11.016;2022-09-09T06:28:05;2.97;;;0.80;;
21299;SDS011;10809;49.476;11.016;2022-09-09T06:30:35;1.10;;;1.10;;
21299;SDS011;10809;49.476;11.016;2022-09-09T06:33:07;1.80;;;0.80;;
21299;SDS011;10809;49.476;11.016;2022-09-09T06:35:37;4.75;;;1.10;;
21299;SDS011;10809;49.476;11.016;2022-09-09T06:38:07;2.05;;;0.95;;
21299;SDS011;10809;49.476;11.016;2022-09-09T06:40:38;1.60;;;0.90;;
21299;SDS011;10809;49.476;11.016;2022-09-09T06:43:09;2.30;;;0.80;;
21299;SDS011;10809;49.476;11.016;2022-09-09T06:45:52;3.67;;;1.00;;
21299;SDS011;10809;49.476;11.016;2022-09-09T06:48:24;1.77;;;0.80;;
21299;SDS011;10809;49.476;11.016;2022-09-09T06:51:04;2.45;;;0.70;;
21299;SDS011;10809;49.476;11.016;2022-09-09T06:53:35;2.72;;;1.20;;
21299;SDS011;10809;49.476;11.016;2022-09-09T06:58:40;0.90;;;0.73;;
21299;SDS011;10809;49.476;11.016;2022-09-09T07:01:16;0.80;;;0.70;;
21299;SDS011;10809;49.476;11.016;2022-09-09T07:03:52;0.98;;;0.88;;
21299;SDS011;10809;49.476;11.016;2022-09-09T07:06:26;4.55;;;1.10;;
21299;SDS011;10809;49.476;11.016;2022-09-09T07:08:58;6.88;;;1.15;;
21299;SDS011;10809;49.476;11.016;2022-09-09T07:11:32;2.45;;;0.70;;
21299;SDS011;10809;49.476;11.016;2022-09-09T07:14:08;6.50;;;1.08;;
21299;SDS011;10809;49.476;11.016;2022-09-09T07:16:40;3.08;;;1.48;;
21299;SDS011;10809;49.476;11.016;2022-09-09T07:19:13;3.15;;;1.17;;
21299;SDS011;10809;49.476;11.016;2022-09-09T07:21:45;1.95;;;0.80;;
21299;SDS011;10809;49.476;11.016;2022-09-09T07:24:18;1.88;;;1.08;;
21299;SDS011;10809;49.476;11.016;2022-09-09T07:26:48;1.00;;;0.73;;
21299;SDS011;10809;49.476;11.016;2022-09-09T07:29:19;1.70;;;1.00;;
21299;SDS011;10809;49.476;11.016;2022-09-09T07:31:50;3.75;;;0.93;;
21299;SDS011;10809;49.476;11.016;2022-09-09T07:34:26;4.15;;;0.95;;
21299;SDS011;10809;49.476;11.016;2022-09-09T07:36:56;1.55;;;0.75;;
21299;SDS011;10809;49.476;11.016;2022-09-09T07:39:27;2.90;;;0.85;;
21299;SDS011;10809;49.476;11.016;2022-09-09T07:41:59;4.20;;;1.40;;
21299;SDS011;10809;49.476;11.016;2022-09-09T07:44:30;4.05;;;0.90;;
21299;SDS011;10809;49.476;11.016;2022-09-09T07:47:09;5.28;;;0.98;;
21299;SDS011;10809;49.476;11.016;2022-09-09T07:49:45;0.73;;;0.55;;
21299;SDS011;10809;49.476;11.016;2022-09-09T07:52:18;1.52;;;1.10;;
21299;SDS011;10809;49.476;11.016;2022-09-09T07:54:51;3.65;;;0.98;;
21299;SDS011;10809;49.476;11.016;2022-09-09T07:57:22;2.95;;;1.08;;
21299;SDS011;10809;49.476;11.016;2022-09-09T07:59:54;1.08;;;0.60;;
21299;SDS011;10809;49.476;11.016;2022-09-09T08:02:26;0.40;;;0.40;;
21299;SDS011;10809;49.476;11.016;2022-09-09T08:04:59;1.95;;;0.95;;
21299;SDS011;10809;49.476;11.016;2022-09-09T08:07:30;2.50;;;0.73;;
21299;SDS011;10809;49.476;11.016;2022-09-09T08:10:00;1.60;;;0.70;;
21299;SDS011;10809;49.476;11.016;2022-09-09T08:12:34;7.22;;;0.68;;
21299;SDS011;10809;49.476;11.016;2022-09-09T08:15:06;1.13;;;0.93;;
21299;SDS011;10809;49.476;11.016;2022-09-09T08:17:37;2.55;;;0.75;;
21299;SDS011;10809;49.476;11.016;2022-09-09T08:20:10;1.48;;;0.70;;
21299;SDS011;10809;49.476;11.016;2022-09-09T08:22:42;1.45;;;0.60;;
21299;SDS011;10809;49.476;11.016;2022-09-09T08:25:14;1.50;;;0.57;;
21299;SDS011;10809;49.476;11.016;2022-09-09T08:27:45;1.50;;;0.70;;
21299;SDS011;10809;49.476;11.016;2022-09-09T08:30:15;1.15;;;0.73;;
21299;SDS011;10809;49.476;11.016;2022-09-09T08:32:46;3.03;;;0.50;;
21299;SDS011;10809;49.476;11.016;2022-09-09T08:35:16;1.42;;;0.40;;
21299;SDS011;10809;49.476;11.016;2022-09-09T08:37:48;0.65;;;0.30;;
21299;SDS011;10809;49.476;11.016;2022-09-09T08:40:26;0.77;;;0.57;;
21299;SDS011;10809;49.476;11.016;2022-09-09T08:43:04;2.83;;;0.55;;
21299;SDS011;10809;49.476;11.016;2022-09-09T08:45:37;0.35;;;0.30;;
21299;SDS011;10809;49.476;11.016;2022-09-09T08:48:32;0.90;;;0.30;;
21299;SDS011;10809;49.476;11.016;2022-09-09T08:51:12;0.40;;;0.22;;
21299;SDS011;10809;49.476;11.016;2022-09-09T08:53:48;0.60;;;0.28;;
21299;SDS011;10809;49.476;11.016;2022-09-09T08:56:21;0.52;;;0.30;;
21299;SDS011;10809;49.476;11.016;2022-09-09T08:58:59;0.32;;;0.30;;
21299;SDS011;10809;49.476;11.016;2022-09-09T09:01:41;1.13;;;0.35;;
21299;SDS011;10809;49.476;11.016;2022-09-09T09:04:24;2.40;;;0.38;;
21299;SDS011;10809;49.476;11.016;2022-09-09T09:10:05;2.55;;;0.22;;
21299;SDS011;10809;49.476;11.016;2022-09-09T09:12:40;3.00;;;0.60;;
21299;SDS011;10809;49.476;11.016;2022-09-09T09:15:23;2.28;;;0.30;;
21299;SDS011;10809;49.476;11.016;2022-09-09T09:17:58;0.80;;;0.20;;
21299;SDS011;10809;49.476;11.016;2022-09-09T09:20:37;0.60;;;0.13;;
21299;SDS011;10809;49.476;11.016;2022-09-09T09:23:22;0.57;;;0.15;;
21299;SDS011;10809;49.476;11.016;2022-09-09T09:25:58;5.95;;;0.73;;
21299;SDS011;10809;49.476;11.016;2022-09-09T09:31:28;1.23;;;0.55;;
21299;SDS011;10809;49.476;11.016;2022-09-09T09:34:03;1.45;;;0.28;;
21299;SDS011;10809;49.476;11.016;2022-09-09T09:36:42;1.85;;;0.30;;
21299;SDS011;10809;49.476;11.016;2022-09-09T09:39:28;0.65;;;0.13;;
21299;SDS011;10809;49.476;11.016;2022-09-09T09:42:11;3.47;;;0.55;;
21299;SDS011;10809;49.476;11.016;2022-09-09T09:44:44;1.80;;;0.50;;
21299;SDS011;10809;49.476;11.016;2022-09-09T09:47:20;0.43;;;0.10;;
21299;SDS011;10809;49.476;11.016;2022-09-09T09:50:16;0.57;;;0.20;;
21299;SDS011;10809;49.476;11.016;2022-09-09T09:52:53;1.42;;;0.30;;
21299;SDS011;10809;49.476;11.016;2022-09-09T09:55:48;1.02;;;0.20;;
21299;SDS011;10809;49.476;11.016;2022-09-09T09:58:27;3.58;;;0.60;;
21299;SDS011;10809;49.476;11.016;2022-09-09T12:28:18;0.70;;;0.30;;
21299;SDS011;10809;49.476;11.016;2022-09-09T12:30:57;1.35;;;0.25;;
21299;SDS011;10809;49.476;11.016;2022-09-09T12:33:55;0.70;;;0.55;;
21299;SDS011;10809;49.476;11.016;2022-09-09T12:36:39;2.53;;;0.57;;
21299;SDS011;10809;49.476;11.016;2022-09-09T12:39:19;1.90;;;0.28;;
21299;SDS011;10809;49.476;11.016;2022-09-09T12:42:03;0.50;;;0.13;;
21299;SDS011;10809;49.476;11.016;2022-09-09T12:44:34;3.33;;;0.20;;
21299;SDS011;10809;49.476;11.016;2022-09-09T12:47:04;0.30;;;0.17;;
21299;SDS011;10809;49.476;11.016;2022-09-09T12:49:36;1.52;;;0.38;;
21299;SDS011;10809;49.476;11.016;2022-09-09T12:55:03;0.43;;;0.20;;
21299;SDS011;10809;49.476;11.016;2022-09-09T12:57:36;0.30;;;0.10;;
21299;SDS011;10809;49.476;11.016;2022-09-09T13:02:52;1.23;;;0.25;;
21299;SDS011;10809;49.476;11.016;2022-09-09T13:05:35;1.27;;;0.40;;
21299;SDS011;10809;49.476;11.016;2022-09-09T13:08:10;1.17;;;0.30;;
21299;SDS011;10809;49.476;11.016;2022-09-09T13:16:20;1.23;;;0.38;;
21299;SDS011;10809;49.476;11.016;2022-09-09T13:18:55;1.60;;;0.47;;
21299;SDS011;10809;49.476;11.016;2022-09-09T13:28:20;1.73;;;0.15;;
21299;SDS011;10809;49.476;11.016;2022-09-09T13:30:58;0.93;;;0.20;;
21299;SDS011;10809;49.476;11.016;2022-09-09T13:33:31;1.55;;;0.30;;
21299;SDS011;10809;49.476;11.016;2022-09-09T13:36:08;0.52;;;0.20;;
21299;SDS011;10809;49.476;11.016;2022-09-09T13:38:54;1.35;;;0.30;;
21299;SDS011;10809;49.476;11.016;2022-09-09T13:41:36;1.17;;;0.40;;
21299;SDS011;10809;49.476;11.016;2022-09-09T13:44:17;1.40;;;0.20;;
21299;SDS011;10809;49.476;11.016;2022-09-09T13:47:06;3.58;;;0.40;;
21299;SDS011;10809;49.476;11.016;2022-09-09T13:49:50;0.17;;;0.10;;
21299;SDS011;10809;49.476;11.016;2022-09-09T13:52:20;0.50;;;0.25;;
21299;SDS011;10809;49.476;11.016;2022-09-09T13:54:52;0.57;;;0.50;;
21299;SDS011;10809;49.476;11.016;2022-09-09T13:57:24;0.35;;;0.20;;
21299;SDS011;10809;49.476;11.016;2022-09-09T13:59:55;2.30;;;0.20;;
21299;SDS011;10809;49.476;11.016;2022-09-09T14:02:26;2.47;;;0.30;;
21299;SDS011;10809;49.476;11.016;2022-09-09T14:04:56;0.20;;;0.10;;
21299;SDS011;10809;49.476;11.016;2022-09-09T14:07:26;2.30;;;0.25;;
21299;SDS011;10809;49.476;11.016;2022-09-09T14:09:57;0.90;;;0.20;;
21299;SDS011;10809;49.476;11.016;2022-09-09T14:12:27;1.10;;;0.30;;
21299;SDS011;10809;49.476;11.016;2022-09-09T14:14:58;1.50;;;0.32;;
21299;SDS011;10809;49.476;11.016;2022-09-09T14:17:29;1.27;;;0.35;;
21299;SDS011;10809;49.476;11.016;2022-09-09T14:20:02;1.65;;;0.20;;
21299;SDS011;10809;49.476;11.016;2022-09-09T14:22:39;1.95;;;0.50;;
21299;SDS011;10809;49.476;11.016;2022-09-09T14:25:09;1.67;;;0.38;;
21299;SDS011;10809;49.476;11.016;2022-09-09T14:27:40;4.13;;;0.38;;
21299;SDS011;10809;49.476;11.016;2022-09-09T14:30:12;0.88;;;0.32;;
21299;SDS011;10809;49.476;11.016;2022-09-09T14:32:42;1.58;;;0.52;;
21299;SDS011;10809;49.476;11.016;2022-09-09T14:35:13;2.65;;;0.47;;
21299;SDS011;10809;49.476;11.016;2022-09-09T14:37:43;4.82;;;0.65;;
21299;SDS011;10809;49.476;11.016;2022-09-09T14:40:14;0.68;;;0.32;;
21299;SDS011;10809;49.476;11.016;2022-09-09T14:42:45;1.75;;;0.30;;
21299;SDS011;10809;49.476;11.016;2022-09-09T14:45:15;2.55;;;0.47;;
21299;SDS011;10809;49.476;11.016;2022-09-09T14:47:46;0.65;;;0.45;;
21299;SDS011;10809;49.476;11.016;2022-09-09T14:50:16;2.42;;;0.38;;
21299;SDS011;10809;49.476;11.016;2022-09-09T14:52:47;3.47;;;0.20;;
21299;SDS011;10809;49.476;11.016;2022-09-09T14:55:18;1.73;;;0.60;;
21299;SDS011;10809;49.476;11.016;2022-09-09T14:57:49;1.33;;;0.60;;
21299;SDS011;10809;49.476;11.016;2022-09-09T15:00:20;0.40;;;0.30;;
21299;SDS011;10809;49.476;11.016;2022-09-09T15:02:53;1.80;;;0.52;;
21299;SDS011;10809;49.476;11.016;2022-09-09T15:05:25;0.73;;;0.30;;
21299;SDS011;10809;49.476;11.016;2022-09-09T15:07:55;0.77;;;0.25;;
21299;SDS011;10809;49.476;11.016;2022-09-09T15:10:26;2.65;;;0.80;;
21299;SDS011;10809;49.476;11.016;2022-09-09T15:12:57;1.35;;;0.40;;
21299;SDS011;10809;49.476;11.016;2022-09-09T15:15:28;0.77;;;0.40;;
21299;SDS011;10809;49.476;11.016;2022-09-09T15:18:02;1.20;;;0.20;;
21299;SDS011;10809;49.476;11.016;2022-09-09T15:23:23;2.03;;;0.40;;
21299;SDS011;10809;49.476;11.016;2022-09-09T15:25:54;1.27;;;0.47;;
21299;SDS011;10809;49.476;11.016;2022-09-09T15:28:27;0.73;;;0.20;;
21299;SDS011;10809;49.476;11.016;2022-09-09T15:30:59;0.55;;;0.30;;
21299;SDS011;10809;49.476;11.016;2022-09-09T15:33:36;0.40;;;0.40;;
21299;SDS011;10809;49.476;11.016;2022-09-09T15:36:14;2.15;;;0.30;;
21299;SDS011;10809;49.476;11.016;2022-09-09T15:38:46;4.25;;;0.57;;
21299;SDS011;10809;49.476;11.016;2022-09-09T15:41:18;0.52;;;0.20;;
21299;SDS011;10809;49.476;11.016;2022-09-09T15:43:52;0.43;;;0.38;;
21299;SDS011;10809;49.476;11.016;2022-09-09T15:46:38;1.98;;;0.10;;
21299;SDS011;10809;49.476;11.016;2022-09-09T15:49:27;1.70;;;0.30;;
21299;SDS011;10809;49.476;11.016;2022-09-09T15:51:58;0.80;;;0.20;;
21299;SDS011;10809;49.476;11.016;2022-09-09T15:54:34;0.68;;;0.20;;
21299;SDS011;10809;49.476;11.016;2022-09-09T16:02:37;5.82;;;0.65;;
21299;SDS011;10809;49.476;11.016;2022-09-09T16:05:09;0.30;;;0.20;;
21299;SDS011;10809;49.476;11.016;2022-09-09T16:07:40;0.60;;;0.10;;
21299;SDS011;10809;49.476;11.016;2022-09-09T16:10:12;3.45;;;0.30;;
21299;SDS011;10809;49.476;11.016;2022-09-09T16:12:43;0.28;;;0.20;;
21299;SDS011;10809;49.476;11.016;2022-09-09T16:15:14;0.95;;;0.10;;
21299;SDS011;10809;49.476;11.016;2022-09-09T16:17:45;0.47;;;0.20;;
21299;SDS011;10809;49.476;11.016;2022-09-09T16:20:16;0.10;;;0.10;;
21299;SDS011;10809;49.476;11.016;2022-09-09T16:22:46;0.20;;;0.10;;
21299;SDS011;10809;49.476;11.016;2022-09-09T16:25:17;0.77;;;0.40;;
21299;SDS011;10809;49.476;11.016;2022-09-09T16:27:53;0.68;;;0.10;;
21299;SDS011;10809;49.476;11.016;2022-09-09T16:30:25;0.47;;;0.10;;
21299;SDS011;10809;49.476;11.016;2022-09-09T16:32:56;0.52;;;0.20;;
21299;SDS011;10809;49.476;11.016;2022-09-09T16:35:26;0.10;;;0.10;;
21299;SDS011;10809;49.476;11.016;2022-09-09T16:37:56;0.65;;;0.25;;
21299;SDS011;10809;49.476;11.016;2022-09-09T16:40:27;0.75;;;0.10;;
21299;SDS011;10809;49.476;11.016;2022-09-09T16:42:57;0.75;;;0.10;;
21299;SDS011;10809;49.476;11.016;2022-09-09T16:45:28;0.32;;;0.10;;
21299;SDS011;10809;49.476;11.016;2022-09-09T16:47:59;0.35;;;0.15;;
21299;SDS011;10809;49.476;11.016;2022-09-09T16:53:04;0.63;;;0.20;;
21299;SDS011;10809;49.476;11.016;2022-09-09T16:55:39;0.10;;;0.10;;
21299;SDS011;10809;49.476;11.016;2022-09-09T16:58:11;0.30;;;0.20;;
21299;SDS011;10809;49.476;11.016;2022-09-09T17:00:41;0.40;;;0.13;;
21299;SDS011;10809;49.476;11.016;2022-09-09T17:03:12;0.30;;;0.10;;
21299;SDS011;10809;49.476;11.016;2022-09-09T17:05:43;0.20;;;0.20;;
21299;SDS011;10809;49.476;11.016;2022-09-09T17:08:14;0.40;;;0.35;;
21299;SDS011;10809;49.476;11.016;2022-09-09T17:10:44;1.02;;;0.30;;
21299;SDS011;10809;49.476;11.016;2022-09-09T17:13:16;0.20;;;0.10;;
21299;SDS011;10809;49.476;11.016;2022-09-09T17:15:50;0.52;;;0.20;;
21299;SDS011;10809;49.476;11.016;2022-09-09T17:18:20;0.80;;;0.40;;
21299;SDS011;10809;49.476;11.016;2022-09-09T17:20:52;0.55;;;0.45;;
21299;SDS011;10809;49.476;11.016;2022-09-09T17:23:29;1.98;;;0.40;;
21299;SDS011;10809;49.476;11.016;2022-09-09T17:26:00;0.20;;;0.20;;
21299;SDS011;10809;49.476;11.016;2022-09-09T17:28:31;1.05;;;0.70;;
21299;SDS011;10809;49.476;11.016;2022-09-09T17:31:01;0.32;;;0.30;;
21299;SDS011;10809;49.476;11.016;2022-09-09T17:33:35;2.97;;;0.43;;
21299;SDS011;10809;49.476;11.016;2022-09-09T17:36:11;0.17;;;0.17;;
21299;SDS011;10809;49.476;11.016;2022-09-09T17:39:06;0.77;;;0.28;;
21299;SDS011;10809;49.476;11.016;2022-09-09T17:41:37;1.98;;;0.30;;
21299;SDS011;10809;49.476;11.016;2022-09-09T17:44:09;3.35;;;0.40;;
21299;SDS011;10809;49.476;11.016;2022-09-09T17:46:51;1.23;;;0.08;;
21299;SDS011;10809;49.476;11.016;2022-09-09T17:49:22;0.35;;;0.20;;
21299;SDS011;10809;49.476;11.016;2022-09-09T17:52:09;0.13;;;0.13;;
21299;SDS011;10809;49.476;11.016;2022-09-09T17:54:39;0.38;;;0.15;;
21299;SDS011;10809;49.476;11.016;2022-09-09T17:57:11;0.20;;;0.10;;
21299;SDS011;10809;49.476;11.016;2022-09-09T17:59:41;0.45;;;0.17;;
21299;SDS011;10809;49.476;11.016;2022-09-09T18:02:12;0.65;;;0.20;;
21299;SDS011;10809;49.476;11.016;2022-09-09T18:04:42;0.52;;;0.25;;
21299;SDS011;10809;49.476;11.016;2022-09-09T18:07:12;0.20;;;0.20;;
21299;SDS011;10809;49.476;11.016;2022-09-09T18:09:43;0.52;;;0.20;;
21299;SDS011;10809;49.476;11.016;2022-09-09T18:12:13;0.50;;;0.20;;
21299;SDS011;10809;49.476;11.016;2022-09-09T18:14:43;3.45;;;0.32;;
21299;SDS011;10809;49.476;11.016;2022-09-09T18:17:14;0.90;;;0.50;;
21299;SDS011;10809;49.476;11.016;2022-09-09T18:22:34;0.63;;;0.30;;
21299;SDS011;10809;49.476;11.016;2022-09-09T18:25:04;0.60;;;0.20;;
21299;SDS011;10809;49.476;11.016;2022-09-09T18:27:35;0.38;;;0.30;;
21299;SDS011;10809;49.476;11.016;2022-09-09T18:30:05;2.13;;;0.47;;
21299;SDS011;10809;49.476;11.016;2022-09-09T18:32:36;0.25;;;0.20;;
21299;SDS011;10809;49.476;11.016;2022-09-09T18:35:07;1.42;;;0.80;;
21299;SDS011;10809;49.476;11.016;2022-09-09T18:37:41;2.20;;;0.52;;
21299;SDS011;10809;49.476;11.016;2022-09-09T18:40:16;0.35;;;0.20;;
21299;SDS011;10809;49.476;11.016;2022-09-09T18:42:47;0.17;;;0.10;;
21299;SDS011;10809;49.476;11.016;2022-09-09T18:45:18;0.32;;;0.10;;
21299;SDS011;10809;49.476;11.016;2022-09-09T18:47:48;0.25;;;0.10;;
21299;SDS011;10809;49.476;11.016;2022-09-09T18:50:18;0.63;;;0.15;;
21299;SDS011;10809;49.476;11.016;2022-09-09T18:52:49;0.17;;;0.10;;
21299;SDS011;10809;49.476;11.016;2022-09-09T18:55:19;0.98;;;0.30;;
21299;SDS011;10809;49.476;11.016;2022-09-09T18:57:50;0.90;;;0.57;;
21299;SDS011;10809;49.476;11.016;2022-09-09T19:00:21;0.80;;;0.22;;
21299;SDS011;10809;49.476;11.016;2022-09-09T19:02:52;2.95;;;1.00;;
21299;SDS011;10809;49.476;11.016;2022-09-09T19:05:22;1.05;;;0.20;;
21299;SDS011;10809;49.476;11.016;2022-09-09T19:07:52;0.98;;;0.40;;